No Warnings, Watches, or Advisories

Active alerts


No alerts

Amazon Weather

Hours of Daylight

13 hrs 32 min 58 sec
of Daylight Today
56.4% Day 43.6% Night Which is
2 min 30 sec Shorter
Than Yesterday

South Webcam more information South Webcam


Anemometer Webcam more information Anemometer Webcam


You find our weather info also at:

UK Metoffice

Weather Underground

Mid-Atlantic Weather Network

WeatherlinkIP

Citizen Weather Observer Program (CWOP)

HAMweather, WeatherForYou, PWS Weather



Nearby METAR Reports

   
KDUJ - Du Bois, Pennsylvania, USA
Distance from station: NNE 16 mi
Updated: Aug 20 2019 11:53 pm
Clear  
Clear  
   Wind: South 3.5 mph
Wind: South 3.5 mph
Temperature: 71.6°F
Dew Point: 66.2°F
Humidity: 83%
Barometer: 30.03 inHg
Clouds: Clear
Visibility: 10 mi
Cloud details: Clear
KDUJ 210353Z AUTO 18003KT 10SM CLR 22/19 A3003 RMK AO2 LTG DSNT W SLP154 T02220194
KIDI - Indiana/Stewart, Pennsylvania, USA
Distance from station: SSW 23 mi
Updated: Aug 21 2019 12:35 am
Haze, Mostly Cloudy  
Haze, Mostly Cloudy  
   Wind: NW 17.3 mph
Wind: NW 17.3 mph
Temperature: 73.4°F
Dew Point: 68°F
Humidity: 83%
Barometer: 30.11 inHg
Clouds: Mostly Cloudy
Visibility: 4 mi
Cloud details: Few Clouds 600 ft,
Partly Cloudy 1800 ft,
Mostly Cloudy 3000 ft
KIDI 210435Z AUTO 31015KT 4SM HZ FEW006 SCT018 BKN030 23/20 A3011 RMK A01
KFIG - Clearfield, Pennsylvania, USA
Distance from station: ENE 31 mi
Updated: Aug 20 2019 11:54 pm
Clear  
Clear  
   Wind: Calm
Wind: Calm
Temperature: 73.4°F
Dew Point: 66.2°F
Humidity: 78%
Barometer: 30.03 inHg
Clouds: Clear
Visibility: 10 mi
Cloud details: Clear
KFIG 210354Z AUTO 00000KT 10SM CLR 23/19 A3003 RMK AO2 SLP157 T02280194
KJST - Johnstown, Pennsylvania, USA
Distance from station: S 44 mi
Updated: Aug 21 2019 12:43 am
Thunderstorm, Mostly Cloudy  
Thunderstorm, Mostly Cloudy  
   Wind: WSW 15 mph<br />Gust to 15 mph
Wind: WSW 15 mph
Gust to 15 mph
Temperature: 71.6°F
Dew Point: 62.6°F
Humidity: 73%
Barometer: 30.11 inHg
Clouds: Mostly Cloudy
Visibility: 10 mi
Cloud details: Few Clouds 3000 ft,
Mostly Cloudy 7000 ft,
Mostly Cloudy 9000 ft
KJST 210443Z AUTO 24013G18KT 10SM TS FEW030 BKN070 BKN090 22/17 A3011 RMK AO2 LTG DSNT SW-NW TSB43 PRESRR T02170167
KPIT - Pittsburgh, Pennsylvania, USA
Distance from station: WSW 74 mi
Updated: Aug 21 2019 12:51 am
Overcast  
Overcast  
   Wind: SE 6.9 mph
Wind: SE 6.9 mph
Temperature: 69.8°F
Dew Point: 68°F
Humidity: 94%
Barometer: 30.01 inHg
Clouds: Overcast
Visibility: 9 mi
Cloud details: Few Clouds 500 ft,
Partly Cloudy 3500 ft,
Overcast 12000 ft
KPIT 210451Z 13006KT 9SM FEW005 SCT035 OVC120 21/20 A3001 RMK AO2 LTG DSNT S SLP161 T02110200 403110194
KLBE - Latrobe/Westmorl, Pennsylvania, USA
Distance from station: SSW 52 mi
Updated: Aug 21 2019 12:35 am
Thunderstorm, Rain, Overcast  
Thunderstorm, Rain, Overcast  
   Wind: SSW 10.4 mph
Wind: SSW 10.4 mph
Temperature: 69.8°F
Dew Point: 69.8°F
Humidity: 100%
Barometer: 30.08 inHg
Clouds: Overcast
Visibility: 4 mi
Cloud details: Partly Cloudy 900 ft,
Mostly Cloudy 3000 ft,
Overcast 6500 ft
KLBE 210435Z AUTO 21009KT 4SM TSRA SCT009 BKN030 OVC065 21/21 A3008 RMK AO2 LTG DSNT ALQDS
KBTP - Butler Co., Pennsylvania, USA
Distance from station: WSW 52 mi
Updated: Aug 20 2019 11:56 pm
Light Rain, Overcast  
Light Rain, Overcast  
   Wind: East 10.4 mph
Wind: East 10.4 mph
Temperature: 68°F
Dew Point: 66.2°F
Humidity: 94%
Barometer: 30.02 inHg
Clouds: Overcast
Visibility: 10 mi
Cloud details: Few Clouds 6500 ft,
Partly Cloudy 9000 ft,
Overcast 11000 ft
KBTP 210356Z AUTO 08009KT 10SM -RA FEW065 SCT090 OVC110 20/19 A3002 RMK AO2 LTG DSNT E AND SE TSE28B30E52 SLP161 T02000194 PNO $
KUCP - New Castle Muni, Pennsylvania, USA
Distance from station: W 75 mi
Updated: Aug 20 2019 11:56 pm
Mostly Cloudy  
Mostly Cloudy  
   Wind: varies 3.5 mph
Wind: varies 3.5 mph
Temperature: 69.8°F
Dew Point: 66.2°F
Humidity: 88%
Barometer: 30 inHg
Clouds: Mostly Cloudy
Visibility: 10 mi
Cloud details: Mostly Cloudy 11000 ft
KUCP 210356Z AUTO VRB03KT 10SM BKN110 21/19 A3000 RMK AO2 TSE02RAE28 SLP163 T02060194 PNO $
KFKL - Franklin, Pennsylvania, USA
Distance from station: WNW 54 mi
Updated: Aug 20 2019 11:56 pm
Mostly Cloudy  
Mostly Cloudy  
   Wind: South 10.4 mph
Wind: South 10.4 mph
Temperature: 68°F
Dew Point: 66.2°F
Humidity: 94%
Barometer: 30.02 inHg
Clouds: Mostly Cloudy
Visibility: 10 mi
Cloud details: Few Clouds 5000 ft,
Partly Cloudy 7000 ft,
Mostly Cloudy 9500 ft
KFKL 210356Z AUTO 18009KT 10SM FEW050 SCT070 BKN095 20/19 A3002 RMK AO2 LTG DSNT E AND SE TSE0258B00E29RAE52 SLP153 P0006 T02000189
KAOO - Altoona, Pennsylvania, USA
Distance from station: SE 57 mi
Updated: Aug 20 2019 11:53 pm
Clear  
Clear  
   Wind: SSW 4.6 mph
Wind: SSW 4.6 mph
Temperature: 71.6°F
Dew Point: 64.4°F
Humidity: 78%
Barometer: 30.06 inHg
Clouds: Clear
Visibility: 10 mi
Cloud details: Clear
KAOO 210353Z AUTO 21004KT 10SM CLR 22/18 A3006 RMK AO2 SLP167 T02220183
KUNV - State College, Pennsylvania, USA
Distance from station: E 61 mi
Updated: Aug 21 2019 12:35 am
Partly Cloudy  
Partly Cloudy  
   Wind: WSW 4.6 mph
Wind: WSW 4.6 mph
Temperature: 71.6°F
Dew Point: 69.8°F
Humidity: 94%
Barometer: 30.03 inHg
Clouds: Partly Cloudy
Visibility: 10 mi
Cloud details: Partly Cloudy 10000 ft
KUNV 210435Z AUTO 24004KT 10SM SCT100 22/21 A3003 RMK AO2 LTG DSNT W T02210205
KBFD - Bradford, Pennsylvania, USA
Distance from station: NNE 62 mi
Updated: Aug 20 2019 11:53 pm
Clear  
Clear  
   Wind: SE 4.6 mph
Wind: SE 4.6 mph
Temperature: 68°F
Dew Point: 66.2°F
Humidity: 94%
Barometer: 30.04 inHg
Clouds: Clear
Visibility: 10 mi
Cloud details: Clear
KBFD 210353Z AUTO 13004KT 10SM CLR 20/19 A3004 RMK AO2 SLP153 T02000194

Script developed by  Saratoga-weather.org Adapted for the template by  Weerstation Leuven

Equipment we use:

Weather-station
Davis VP2

Weather-program
Cumulus

Weather-server
Dell Inspiron 3521

Provider
Host On A Rope

Davis VP2

Cumulus

Dell Inspiron 3521

Host On A Rope